Time;durP1;ratioP1;P1;durP2;ratioP2;P2;SDS_P1;SDS_P2;PMS_P1;PMS_P2;Temp;Humidity;BMP_temperature;BMP_pressure;BME280_temperature;BME280_humidity;BME280_pressure;Samples;Min_cycle;Max_cycle;Signal;HPM_P1;HPM_P2
2023/05/13 00:01:03;;;;;;;13.70;9.10;;;10.60;80.80;;;;;;5015107;28;20461;-71
2023/05/13 00:03:29;;;;;;;11.85;9.00;;;10.60;81.80;;;;;;5025431;28;20042;-71
2023/05/13 00:05:55;;;;;;;11.93;9.02;;;10.60;81.40;;;;;;5013526;28;20458;-72
2023/05/13 00:08:21;;;;;;;15.13;8.95;;;10.60;81.60;;;;;;5015530;28;20053;-70
2023/05/13 00:10:46;;;;;;;14.32;9.73;;;10.50;81.90;;;;;;5029614;28;20030;-71
2023/05/13 00:13:12;;;;;;;13.25;10.10;;;10.60;82.00;;;;;;5023132;28;20128;-71
2023/05/13 00:15:39;;;;;;;12.27;9.30;;;10.50;82.40;;;;;;5022827;28;20049;-71
2023/05/13 00:18:04;;;;;;;12.95;8.90;;;10.40;82.70;;;;;;5019983;28;20042;-71
2023/05/13 00:20:30;;;;;;;11.50;10.00;;;10.40;83.10;;;;;;5022908;28;20052;-71
2023/05/13 00:22:56;;;;;;;12.40;9.32;;;10.40;83.20;;;;;;5021775;28;20053;-70
2023/05/13 00:25:21;;;;;;;13.18;9.50;;;10.40;83.40;;;;;;5022120;28;20041;-71
2023/05/13 00:27:47;;;;;;;14.23;9.43;;;10.40;83.60;;;;;;5021625;28;20037;-70
2023/05/13 00:30:12;;;;;;;13.15;8.77;;;10.30;83.90;;;;;;5023055;28;20037;-72
2023/05/13 00:32:38;;;;;;;11.35;8.45;;;10.30;84.10;;;;;;5027664;28;20059;-71
2023/05/13 00:35:04;;;;;;;12.95;9.00;;;10.30;84.00;;;;;;5002094;28;20096;-71
2023/05/13 00:37:29;;;;;;;10.98;9.43;;;10.20;84.20;;;;;;5029834;28;20038;-71
2023/05/13 00:39:55;;;;;;;11.75;8.85;;;10.20;84.70;;;;;;5028894;28;20076;-70
2023/05/13 00:42:21;;;;;;;17.05;10.20;;;10.20;84.80;;;;;;5019128;28;20132;-71
2023/05/13 00:44:46;;;;;;;13.23;8.70;;;10.20;85.10;;;;;;4997414;28;20044;-72
2023/05/13 00:47:12;;;;;;;13.18;9.70;;;10.20;85.40;;;;;;5024439;28;20048;-71
2023/05/13 00:49:37;;;;;;;12.77;8.98;;;10.20;85.70;;;;;;5024229;28;20469;-72
2023/05/13 00:52:04;;;;;;;12.93;10.20;;;10.10;85.80;;;;;;5028255;28;20527;-72
2023/05/13 00:54:29;;;;;;;12.88;10.10;;;10.20;85.90;;;;;;5028471;28;20397;-72
2023/05/13 00:56:55;;;;;;;11.75;8.88;;;10.10;85.90;;;;;;5002462;28;20033;-72
2023/05/13 00:59:27;;;;;;;11.43;9.32;;;10.10;86.10;;;;;;5020696;28;20045;-71
2023/05/13 01:02:15;;;;;;;14.93;9.20;;;10.10;86.60;;;;;;5016729;28;20038;-71
2023/05/13 01:05:07;;;;;;;12.98;9.70;;;10.10;87.80;;;;;;5018113;28;20125;-70
2023/05/13 01:07:55;;;;;;;14.00;9.77;;;10.10;87.40;;;;;;5009867;28;20128;-72
2023/05/13 01:10:26;;;;;;;13.18;9.80;;;10.00;87.90;;;;;;5009241;28;20394;-71
2023/05/13 01:12:57;;;;;;;12.02;9.32;;;10.00;87.00;;;;;;5028617;28;20049;-71
2023/05/13 01:15:26;;;;;;;;;;;9.90;87.30;;;;;;5013697;28;20044;-72
2023/05/13 01:18:05;;;;;;;12.32;8.75;;;9.90;89.90;;;;;;5022485;28;19917;-71
2023/05/13 01:20:32;;;;;;;14.32;9.30;;;9.90;88.20;;;;;;5020931;28;20049;-72
2023/05/13 01:22:58;;;;;;;13.38;9.80;;;9.80;87.50;;;;;;5025479;28;20046;-72
2023/05/13 01:25:26;;;;;;;12.88;9.48;;;9.80;87.50;;;;;;5010638;28;20044;-71
2023/05/13 01:27:53;;;;;;;11.57;9.27;;;9.80;87.70;;;;;;5025754;28;20189;-71
2023/05/13 01:30:20;;;;;;;12.40;9.90;;;9.80;88.00;;;;;;5024212;28;20065;-72
2023/05/13 01:32:46;;;;;;;12.60;9.77;;;9.70;89.10;;;;;;5012579;28;20470;-71
2023/05/13 01:35:14;;;;;;;13.20;9.38;;;9.70;88.40;;;;;;5021889;28;20041;-70
2023/05/13 01:37:40;;;;;;;13.93;10.25;;;9.60;88.60;;;;;;5023654;28;20060;-72
2023/05/13 01:40:06;;;;;;;14.00;9.77;;;9.60;88.80;;;;;;5006897;28;20049;-70
2023/05/13 01:42:33;;;;;;;11.68;9.68;;;9.70;89.10;;;;;;5023791;28;20073;-71
2023/05/13 01:44:59;;;;;;;12.23;9.13;;;9.70;89.50;;;;;;5032813;28;20380;-71
2023/05/13 01:47:25;;;;;;;12.55;9.15;;;9.70;89.70;;;;;;5031853;28;20128;-72
2023/05/13 01:49:51;;;;;;;16.80;10.07;;;9.70;89.80;;;;;;5031357;28;20075;-72
2023/05/13 01:52:17;;;;;;;13.63;9.95;;;9.70;89.90;;;;;;5027330;28;20065;-72
2023/05/13 01:54:42;;;;;;;12.93;9.95;;;9.60;90.00;;;;;;4996326;28;20025;-71
2023/05/13 01:57:08;;;;;;;13.10;9.35;;;9.60;90.10;;;;;;5012412;28;20037;-72
2023/05/13 01:59:33;;;;;;;16.73;10.52;;;9.60;90.20;;;;;;4995995;28;20073;-71
2023/05/13 02:01:59;;;;;;;13.02;10.18;;;9.60;90.30;;;;;;5011430;28;20524;-72
2023/05/13 02:04:25;;;;;;;15.30;10.82;;;9.50;90.40;;;;;;5041509;28;20042;-72
2023/05/13 02:06:50;;;;;;;14.70;10.23;;;9.50;90.50;;;;;;5021099;28;20034;-72
2023/05/13 02:09:16;;;;;;;14.20;10.20;;;9.40;90.50;;;;;;5031456;28;20092;-72
2023/05/13 02:11:42;;;;;;;16.27;10.35;;;9.40;90.60;;;;;;5012813;28;20038;-72
2023/05/13 02:14:07;;;;;;;19.05;10.98;;;9.40;90.70;;;;;;5018740;28;20065;-72
2023/05/13 02:16:33;;;;;;;13.98;10.43;;;9.40;90.80;;;;;;5017972;28;20716;-70
2023/05/13 02:18:58;;;;;;;12.88;9.98;;;9.40;91.00;;;;;;5021922;28;20087;-72
2023/05/13 02:21:24;;;;;;;14.93;10.25;;;9.30;90.90;;;;;;5022819;28;20057;-70
2023/05/13 02:23:49;;;;;;;16.67;11.02;;;9.30;91.00;;;;;;5021815;28;20132;-71
2023/05/13 02:26:15;;;;;;;16.73;11.68;;;9.30;91.20;;;;;;5025585;28;20556;-71
2023/05/13 02:28:40;;;;;;;14.02;11.07;;;9.20;91.20;;;;;;5021442;28;20592;-72
2023/05/13 02:31:06;;;;;;;17.15;10.75;;;9.20;91.30;;;;;;5022303;28;20037;-70
2023/05/13 02:33:32;;;;;;;16.83;11.77;;;9.20;91.40;;;;;;5003705;28;20340;-72
2023/05/13 02:35:57;;;;;;;14.65;10.50;;;9.20;91.60;;;;;;5005585;28;20029;-72
2023/05/13 02:38:23;;;;;;;19.40;12.25;;;9.20;91.80;;;;;;5021368;28;20041;-72
2023/05/13 02:40:49;;;;;;;16.20;11.38;;;9.20;92.10;;;;;;5016781;28;20053;-72
2023/05/13 02:43:14;;;;;;;15.82;10.75;;;9.30;92.10;;;;;;5021556;28;20468;-72
2023/05/13 02:45:40;;;;;;;14.70;10.80;;;9.20;92.00;;;;;;5023738;28;20065;-72
2023/05/13 02:48:06;;;;;;;17.88;10.65;;;9.10;92.00;;;;;;5021665;28;20385;-70
2023/05/13 02:50:31;;;;;;;15.52;12.23;;;9.10;92.30;;;;;;5017534;28;20041;-70
2023/05/13 02:52:57;;;;;;;20.45;11.90;;;9.10;92.30;;;;;;5016283;28;20049;-72
2023/05/13 02:55:23;;;;;;;17.77;11.93;;;9.10;92.50;;;;;;5020630;28;20147;-72
2023/05/13 02:57:48;;;;;;;16.25;11.77;;;9.10;92.70;;;;;;5021045;28;20093;-70
2023/05/13 03:00:14;;;;;;;19.33;11.90;;;9.10;92.70;;;;;;5020512;28;20034;-72
2023/05/13 03:02:41;;;;;;;16.05;11.32;;;9.10;92.70;;;;;;4999639;28;20050;-72
2023/05/13 03:05:07;;;;;;;18.77;11.15;;;9.10;93.10;;;;;;5017632;28;20080;-72
2023/05/13 03:07:33;;;;;;;17.95;12.20;;;9.00;93.10;;;;;;5020405;28;20462;-72
2023/05/13 03:09:58;;;;;;;17.33;11.68;;;9.00;93.10;;;;;;5022930;28;20041;-72
2023/05/13 03:12:24;;;;;;;16.52;12.63;;;9.10;93.20;;;;;;5022096;28;20065;-72
2023/05/13 03:14:50;;;;;;;17.33;12.27;;;9.10;93.20;;;;;;5004935;28;20120;-73
2023/05/13 03:17:15;;;;;;;15.98;12.15;;;9.00;93.30;;;;;;5005617;28;20477;-71
2023/05/13 03:19:41;;;;;;;17.20;12.63;;;9.00;93.40;;;;;;5008711;28;20030;-70
2023/05/13 03:22:06;;;;;;;18.65;12.48;;;8.90;93.50;;;;;;5000721;28;20473;-72
2023/05/13 03:24:32;;;;;;;18.02;12.45;;;8.90;93.70;;;;;;5013342;28;20046;-73
2023/05/13 03:26:58;;;;;;;18.98;13.32;;;8.90;93.80;;;;;;5014151;28;20152;-72
2023/05/13 03:29:23;;;;;;;15.52;12.10;;;8.80;93.90;;;;;;5016048;28;20049;-72
2023/05/13 03:31:49;;;;;;;16.63;12.27;;;8.80;94.00;;;;;;5019165;28;20032;-71
2023/05/13 03:34:15;;;;;;;17.40;12.15;;;8.80;94.00;;;;;;5012547;28;20152;-72
2023/05/13 03:36:41;;;;;;;19.00;12.98;;;8.90;94.20;;;;;;4997950;28;20319;-73
2023/05/13 03:39:07;;;;;;;18.10;13.55;;;8.90;94.20;;;;;;5019763;28;20046;-73
2023/05/13 03:41:33;;;;;;;22.75;13.65;;;8.80;94.30;;;;;;5019244;28;20144;-73
2023/05/13 03:43:59;;;;;;;18.00;13.00;;;8.80;94.30;;;;;;5015055;28;20408;-73
2023/05/13 03:46:26;;;;;;;19.42;13.52;;;8.80;94.50;;;;;;5017013;28;20045;-72
2023/05/13 03:48:52;;;;;;;22.67;14.23;;;8.80;94.50;;;;;;5012378;28;20033;-72
2023/05/13 03:51:18;;;;;;;18.77;14.02;;;8.80;94.70;;;;;;5012182;28;20083;-72
2023/05/13 03:53:43;;;;;;;20.42;13.90;;;8.80;94.70;;;;;;4993775;28;20041;-72
2023/05/13 03:56:09;;;;;;;20.38;13.52;;;8.80;94.70;;;;;;5010206;28;20482;-74
2023/05/13 03:58:34;;;;;;;21.02;14.20;;;8.70;94.70;;;;;;4993790;28;20559;-73
2023/05/13 04:01:00;;;;;;;22.58;13.82;;;8.70;94.80;;;;;;5015332;28;20097;-73
2023/05/13 04:03:26;;;;;;;23.35;13.40;;;8.70;94.90;;;;;;5039953;28;20049;-73
2023/05/13 04:05:51;;;;;;;18.90;13.55;;;8.70;95.20;;;;;;5025790;28;20049;-73
2023/05/13 04:08:17;;;;;;;21.17;15.15;;;8.70;95.30;;;;;;5026274;28;20103;-73
2023/05/13 04:10:43;;;;;;;20.92;14.15;;;8.70;95.40;;;;;;5016933;28;20041;-73
2023/05/13 04:13:08;;;;;;;22.20;14.65;;;8.70;95.50;;;;;;5011242;28;20041;-73
2023/05/13 04:15:34;;;;;;;23.08;14.90;;;8.70;95.50;;;;;;5013296;28;20037;-72
2023/05/13 04:17:59;;;;;;;23.52;15.07;;;8.60;95.60;;;;;;5016826;28;20038;-73
2023/05/13 04:20:25;;;;;;;20.95;14.73;;;8.70;95.80;;;;;;5014638;28;20116;-73
2023/05/13 04:22:51;;;;;;;20.17;14.50;;;8.70;95.90;;;;;;5023089;28;20041;-73
2023/05/13 04:25:17;;;;;;;21.02;14.75;;;8.70;95.80;;;;;;5008713;28;20390;-72
2023/05/13 04:27:42;;;;;;;23.13;14.98;;;8.70;96.10;;;;;;5009926;28;20521;-73
2023/05/13 04:30:09;;;;;;;20.98;14.88;;;8.70;96.00;;;;;;5018438;28;20195;-72
2023/05/13 04:32:35;;;;;;;22.58;14.68;;;8.80;96.20;;;;;;5015393;28;20124;-71
2023/05/13 04:35:00;;;;;;;21.40;14.55;;;8.80;96.20;;;;;;5021588;28;20045;-73
2023/05/13 04:37:26;;;;;;;21.30;15.15;;;8.80;96.30;;;;;;5021569;28;20045;-73
2023/05/13 04:39:51;;;;;;;24.33;15.60;;;8.90;96.40;;;;;;5001703;28;20037;-71
2023/05/13 04:42:17;;;;;;;20.17;14.05;;;8.80;96.40;;;;;;5018866;28;20050;-71
2023/05/13 04:44:43;;;;;;;20.42;14.52;;;8.90;96.50;;;;;;5020133;28;20128;-74
2023/05/13 04:47:08;;;;;;;23.88;15.10;;;8.90;96.50;;;;;;5002604;28;20037;-73
2023/05/13 04:49:35;;;;;;;21.60;15.98;;;9.00;96.70;;;;;;5017779;28;20399;-73
2023/05/13 04:52:02;;;;;;;23.42;16.48;;;9.10;96.80;;;;;;5020006;28;20042;-72
2023/05/13 04:54:27;;;;;;;22.92;15.77;;;9.10;96.90;;;;;;5005281;28;20049;-73
2023/05/13 04:56:53;;;;;;;20.80;14.32;;;9.20;96.90;;;;;;5024304;28;20474;-73
2023/05/13 04:59:19;;;;;;;22.30;15.98;;;9.30;97.00;;;;;;5024285;28;20037;-73
2023/05/13 05:01:44;;;;;;;22.25;16.20;;;9.50;97.20;;;;;;5006014;28;20044;-74
2023/05/13 05:04:11;;;;;;;23.60;16.48;;;9.60;96.80;;;;;;5019711;28;20037;-71
2023/05/13 05:06:36;;;;;;;20.10;14.68;;;9.70;96.80;;;;;;5023330;28;20480;-72
2023/05/13 05:09:02;;;;;;;24.45;16.17;;;9.80;97.10;;;;;;5024638;28;20052;-73
2023/05/13 05:11:28;;;;;;;22.23;15.43;;;9.90;96.80;;;;;;5023402;28;20144;-73
2023/05/13 05:13:53;;;;;;;19.65;15.25;;;10.10;97.00;;;;;;5025036;28;20481;-71
2023/05/13 05:16:19;;;;;;;26.60;15.30;;;10.20;97.20;;;;;;5022127;28;20164;-72
2023/05/13 05:18:44;;;;;;;20.08;15.55;;;10.40;97.30;;;;;;5023347;28;20488;-73
2023/05/13 05:21:11;;;;;;;26.02;15.20;;;10.50;97.40;;;;;;5026048;28;20052;-72
2023/05/13 05:23:37;;;;;;;19.02;14.85;;;10.60;97.50;;;;;;5006012;28;20404;-72
2023/05/13 05:26:02;;;;;;;20.55;14.65;;;10.70;97.60;;;;;;5025752;28;20048;-73
2023/05/13 05:28:28;;;;;;;20.13;13.98;;;10.90;97.60;;;;;;5025334;28;20053;-72
2023/05/13 05:30:54;;;;;;;21.48;15.00;;;11.00;97.80;;;;;;5007617;28;20046;-71
2023/05/13 05:33:20;;;;;;;20.20;15.13;;;11.10;97.70;;;;;;5022390;28;20037;-72
2023/05/13 05:35:46;;;;;;;18.77;13.27;;;11.20;97.70;;;;;;5024665;28;20037;-71
2023/05/13 05:38:12;;;;;;;18.67;13.90;;;11.40;97.70;;;;;;5024379;28;20435;-72
2023/05/13 05:40:42;;;;;;;16.35;13.57;;;11.40;97.70;;;;;;5022837;28;20710;-73
2023/05/13 05:43:09;;;;;;;17.90;13.93;;;11.40;97.30;;;;;;5030885;28;20041;-72
2023/05/13 05:45:36;;;;;;;16.33;12.57;;;11.40;97.20;;;;;;5032272;28;20126;-73
2023/05/13 05:48:01;;;;;;;20.63;13.38;;;11.50;96.90;;;;;;5033096;28;20150;-72
2023/05/13 05:50:27;;;;;;;18.38;13.88;;;11.70;96.90;;;;;;5021298;28;20068;-71
2023/05/13 05:52:53;;;;;;;19.92;13.93;;;11.80;96.80;;;;;;5021563;28;20112;-73
2023/05/13 05:55:19;;;;;;;19.30;13.07;;;11.80;96.60;;;;;;5012610;28;20588;-72
2023/05/13 05:57:44;;;;;;;19.65;13.63;;;11.70;96.30;;;;;;5012279;28;20097;-72
2023/05/13 06:00:11;;;;;;;15.30;12.60;;;11.80;96.10;;;;;;4995389;28;20038;-71
2023/05/13 06:02:36;;;;;;;15.68;12.15;;;12.00;96.10;;;;;;5010027;28;20054;-72
2023/05/13 06:05:02;;;;;;;19.80;13.57;;;12.30;96.20;;;;;;5008775;28;20547;-71
2023/05/13 06:07:27;;;;;;;18.65;12.98;;;12.60;96.20;;;;;;5001924;28;20037;-71
2023/05/13 06:09:54;;;;;;;14.95;12.35;;;13.00;96.20;;;;;;5030181;28;20470;-72
2023/05/13 06:12:19;;;;;;;18.20;12.40;;;13.30;95.90;;;;;;5027437;28;20048;-70
2023/05/13 06:14:45;;;;;;;18.02;12.23;;;13.50;95.50;;;;;;5019563;28;20030;-70
2023/05/13 06:17:13;;;;;;;16.15;11.27;;;13.80;95.10;;;;;;5019961;28;20037;-70
2023/05/13 06:19:42;;;;;;;15.15;11.48;;;14.10;94.60;;;;;;5015716;28;20045;-69
2023/05/13 06:22:08;;;;;;;19.25;11.45;;;14.30;93.70;;;;;;4999952;28;20053;-71
2023/05/13 06:24:34;;;;;;;18.10;10.95;;;14.50;93.00;;;;;;5001080;28;20116;-72
2023/05/13 06:27:00;;;;;;;14.20;10.68;;;14.60;92.40;;;;;;5000516;28;20124;-71
2023/05/13 06:29:26;;;;;;;13.35;10.48;;;14.90;92.20;;;;;;5021028;28;20041;-71
2023/05/13 06:31:52;;;;;;;13.35;10.18;;;15.00;91.70;;;;;;5013743;28;22054;-71
2023/05/13 06:34:18;;;;;;;12.70;9.77;;;15.10;91.40;;;;;;5015155;28;20131;-71
2023/05/13 06:36:44;;;;;;;13.82;10.15;;;15.30;91.00;;;;;;5014419;28;20501;-71
2023/05/13 06:39:10;;;;;;;13.82;10.60;;;15.50;90.50;;;;;;5010407;28;20037;-70
2023/05/13 06:41:42;;;;;;;12.63;10.32;;;15.70;90.00;;;;;;5044108;28;20389;-71
2023/05/13 06:44:08;;;;;;;14.57;10.63;;;15.90;89.10;;;;;;5020171;28;20130;-71
2023/05/13 06:46:34;;;;;;;15.50;11.15;;;16.10;88.20;;;;;;5028845;28;20045;-72
2023/05/13 06:48:59;;;;;;;13.32;10.88;;;16.20;87.30;;;;;;5018760;28;20057;-71
2023/05/13 06:51:29;;;;;;;13.93;10.15;;;16.30;86.40;;;;;;4996763;28;20042;-70
2023/05/13 06:53:55;;;;;;;16.85;10.73;;;16.50;86.10;;;;;;5026867;28;20033;-71
2023/05/13 06:56:21;;;;;;;15.38;10.20;;;16.60;85.50;;;;;;5021733;28;20030;-70
2023/05/13 06:58:49;;;;;;;13.43;10.02;;;16.70;84.60;;;;;;5019811;28;20053;-70
2023/05/13 07:01:15;;;;;;;14.27;9.90;;;16.90;83.40;;;;;;5017767;28;20129;-70
2023/05/13 07:03:42;;;;;;;11.98;9.77;;;17.10;83.10;;;;;;5018181;28;20042;-70
2023/05/13 07:06:07;;;;;;;12.43;9.90;;;17.20;82.00;;;;;;5025983;28;20045;-71
2023/05/13 07:08:33;;;;;;;13.35;10.00;;;17.30;81.20;;;;;;5025225;28;20084;-71
2023/05/13 07:10:59;;;;;;;12.23;9.55;;;17.40;81.00;;;;;;4997542;28;20038;-71
2023/05/13 07:13:25;;;;;;;11.45;9.43;;;17.70;80.30;;;;;;4994195;28;20062;-70
2023/05/13 07:15:50;;;;;;;15.02;10.48;;;17.90;79.70;;;;;;5023849;28;20037;-70
2023/05/13 07:18:16;;;;;;;10.32;9.23;;;17.90;78.40;;;;;;5010347;28;20439;-70
2023/05/13 07:20:41;;;;;;;10.45;8.98;;;18.20;77.30;;;;;;5004980;28;20050;-70
2023/05/13 07:23:07;;;;;;;12.05;8.98;;;18.20;76.50;;;;;;5017645;28;20389;-71
2023/05/13 07:25:33;;;;;;;10.70;9.15;;;18.50;75.80;;;;;;5021551;28;20079;-70
2023/05/13 07:27:58;;;;;;;10.00;8.85;;;18.70;75.20;;;;;;5019995;28;20062;-71
2023/05/13 07:30:24;;;;;;;11.27;10.07;;;18.90;74.60;;;;;;5018180;28;20048;-71
2023/05/13 07:32:50;;;;;;;13.43;8.55;;;18.80;73.90;;;;;;5018417;28;20050;-70
2023/05/13 07:35:16;;;;;;;12.95;9.02;;;19.00;73.50;;;;;;5022634;28;20060;-71
2023/05/13 07:37:42;;;;;;;12.80;9.48;;;19.30;72.60;;;;;;5015894;28;20049;-71
2023/05/13 07:40:08;;;;;;;11.80;9.98;;;19.50;71.40;;;;;;5011987;28;20061;-69
2023/05/13 07:42:35;;;;;;;10.10;8.98;;;19.40;70.90;;;;;;5012304;28;20041;-70
2023/05/13 07:45:01;;;;;;;13.68;9.18;;;19.50;70.40;;;;;;5003857;28;20123;-70
2023/05/13 07:47:27;;;;;;;10.90;8.68;;;19.80;69.50;;;;;;5019888;28;20049;-70
2023/05/13 07:49:53;;;;;;;11.57;8.95;;;19.90;68.30;;;;;;5015561;28;20120;-70
2023/05/13 07:52:19;;;;;;;10.00;8.52;;;20.10;67.20;;;;;;5029049;28;20041;-71
2023/05/13 07:54:45;;;;;;;12.30;8.13;;;20.30;66.80;;;;;;5001211;28;20108;-70
2023/05/13 07:57:10;;;;;;;9.85;7.00;;;20.50;66.30;;;;;;5012734;28;20115;-69
2023/05/13 07:59:36;;;;;;;11.20;8.85;;;20.80;65.70;;;;;;5009996;28;20052;-70
2023/05/13 08:02:01;;;;;;;9.80;8.80;;;21.10;64.80;;;;;;5022214;28;20045;-70
2023/05/13 08:04:27;;;;;;;10.27;8.48;;;21.10;63.90;;;;;;5027118;28;20053;-71
2023/05/13 08:06:53;;;;;;;11.48;9.38;;;21.20;63.70;;;;;;5024408;28;20033;-72
2023/05/13 08:09:18;;;;;;;14.52;9.48;;;21.30;63.50;;;;;;5029048;28;20037;-71
2023/05/13 08:11:44;;;;;;;11.05;8.35;;;21.20;63.90;;;;;;5023269;28;20045;-72
2023/05/13 08:14:09;;;;;;;9.75;8.63;;;21.70;63.00;;;;;;5016685;28;20403;-70
2023/05/13 08:16:35;;;;;;;10.10;8.75;;;21.60;61.90;;;;;;5006100;28;20041;-70
2023/05/13 08:19:01;;;;;;;9.38;8.48;;;21.80;60.10;;;;;;5028260;28;20044;-69
2023/05/13 08:21:27;;;;;;;9.20;7.80;;;22.20;58.80;;;;;;5002030;28;20466;-71
2023/05/13 08:23:52;;;;;;;8.82;7.80;;;22.40;57.90;;;;;;5014618;28;20073;-71
2023/05/13 08:26:18;;;;;;;8.05;6.78;;;22.50;56.30;;;;;;5027225;28;20079;-70
2023/05/13 08:28:43;;;;;;;8.32;7.53;;;22.90;55.10;;;;;;5030320;28;20095;-70
2023/05/13 08:31:12;;;;;;;8.30;6.18;;;23.30;53.30;;;;;;5029066;28;20045;-69
2023/05/13 08:33:40;;;;;;;7.80;6.70;;;23.60;52.10;;;;;;5010553;28;20033;-69
2023/05/13 08:36:06;;;;;;;10.10;6.85;;;23.60;51.90;;;;;;4999120;28;20296;-71
2023/05/13 08:38:32;;;;;;;11.05;6.53;;;24.00;50.90;;;;;;5015182;28;20042;-71
2023/05/13 08:40:58;;;;;;;9.23;6.03;;;24.30;50.00;;;;;;5003807;28;20145;-70
2023/05/13 08:43:26;;;;;;;6.82;5.75;;;24.60;48.80;;;;;;5015103;28;20042;-72
2023/05/13 08:45:53;;;;;;;7.88;5.00;;;25.00;47.50;;;;;;5015256;28;20096;-71
2023/05/13 08:48:20;;;;;;;6.47;5.82;;;25.30;47.30;;;;;;5017478;28;20092;-71
2023/05/13 08:50:46;;;;;;;6.88;4.95;;;25.50;46.40;;;;;;5016195;28;20404;-71
2023/05/13 08:53:12;;;;;;;8.73;4.75;;;25.70;44.80;;;;;;5032973;28;20521;-71
2023/05/13 08:55:39;;;;;;;5.85;4.45;;;26.20;43.30;;;;;;5013611;28;20041;-70
2023/05/13 08:58:05;;;;;;;6.55;4.50;;;26.50;42.60;;;;;;5032593;28;20487;-72
2023/05/13 09:00:35;;;;;;;6.60;4.80;;;26.60;41.20;;;;;;5021994;28;20037;-71
2023/05/13 09:03:01;;;;;;;7.25;4.90;;;27.00;40.60;;;;;;5030545;28;20383;-71
2023/05/13 09:05:27;;;;;;;5.60;4.38;;;27.00;39.10;;;;;;5020543;28;20046;-71
2023/05/13 09:07:53;;;;;;;6.80;4.28;;;27.30;38.20;;;;;;5022515;28;20037;-71
2023/05/13 09:10:20;;;;;;;8.02;4.20;;;27.50;38.50;;;;;;5025049;28;20551;-70
2023/05/13 09:12:51;;;;;;;6.35;4.07;;;27.80;37.40;;;;;;5014000;28;20543;-70
2023/05/13 09:15:21;;;;;;;6.15;5.15;;;28.00;36.80;;;;;;5010992;28;20061;-72
2023/05/13 09:17:51;;;;;;;6.47;4.50;;;27.70;35.60;;;;;;5010462;28;20054;-69
2023/05/13 09:20:18;;;;;;;6.22;4.18;;;27.90;35.50;;;;;;4999987;28;20060;-70
2023/05/13 09:22:45;;;;;;;7.40;5.22;;;28.30;35.40;;;;;;5005050;28;20124;-71
2023/05/13 09:25:12;;;;;;;6.80;3.72;;;28.60;35.10;;;;;;4997311;28;20053;-70
2023/05/13 09:27:41;;;;;;;8.05;4.75;;;29.20;35.20;;;;;;5017097;28;20465;-70
2023/05/13 09:30:08;;;;;;;8.48;4.78;;;29.20;34.80;;;;;;5016241;28;20038;-71
2023/05/13 09:32:34;;;;;;;8.10;5.05;;;29.40;33.70;;;;;;5013609;28;20076;-71
2023/05/13 09:35:12;;;;;;;7.10;4.75;;;29.70;33.00;;;;;;5017465;28;20882;-71
2023/05/13 09:37:38;;;;;;;7.63;4.93;;;29.50;33.50;;;;;;5010687;28;20044;-71
2023/05/13 09:40:04;;;;;;;6.97;4.75;;;29.80;32.70;;;;;;5018052;28;20065;-70
2023/05/13 09:42:31;;;;;;;5.85;4.63;;;29.60;33.10;;;;;;5022689;28;20053;-71
2023/05/13 09:45:05;;;;;;;5.03;4.38;;;29.10;33.30;;;;;;5011612;28;20505;-72
2023/05/13 09:47:30;;;;;;;5.85;4.13;;;28.70;34.00;;;;;;5017647;28;20057;-71
2023/05/13 09:49:56;;;;;;;9.45;4.70;;;28.30;35.40;;;;;;5010952;28;20398;-70
2023/05/13 09:52:22;;;;;;;6.25;4.50;;;27.90;34.60;;;;;;5017602;28;20831;-70
2023/05/13 09:54:47;;;;;;;7.05;4.22;;;27.40;34.20;;;;;;5017011;28;20038;-69
2023/05/13 09:57:14;;;;;;;7.07;4.75;;;27.20;35.40;;;;;;5025262;28;20525;-68
2023/05/13 09:59:40;;;;;;;8.52;4.40;;;26.90;35.90;;;;;;5023556;28;20469;-71
2023/05/13 10:02:07;;;;;;;6.43;3.92;;;26.60;35.70;;;;;;5026371;28;20049;-70
2023/05/13 10:04:33;;;;;;;6.53;3.67;;;27.30;35.40;;;;;;5019343;28;20095;-70
2023/05/13 10:07:02;;;;;;;5.43;4.07;;;27.80;35.10;;;;;;5014445;28;20046;-71
2023/05/13 10:09:32;;;;;;;4.72;3.80;;;28.80;33.00;;;;;;5012133;28;20053;-71
2023/05/13 10:11:58;;;;;;;;;;;30.00;31.60;;;;;;5017037;28;20045;-72
2023/05/13 10:14:24;;;;;;;6.05;4.32;;;30.60;33.40;;;;;;5015109;28;19952;-71
2023/05/13 10:16:50;;;;;;;5.10;3.97;;;31.40;30.10;;;;;;5014600;28;20076;-71
2023/05/13 10:19:17;;;;;;;7.65;3.42;;;32.00;29.40;;;;;;5026886;28;20057;-71
2023/05/13 10:21:43;;;;;;;4.63;3.90;;;31.30;28.60;;;;;;5026454;28;20042;-71
2023/05/13 10:24:08;;;;;;;5.65;3.28;;;31.80;27.60;;;;;;5031494;28;20091;-71
2023/05/13 10:26:35;;;;;;;6.22;3.63;;;32.40;27.60;;;;;;5032092;28;20077;-72
2023/05/13 10:29:02;;;;;;;10.23;3.58;;;32.70;27.60;;;;;;5030341;28;20045;-72
2023/05/13 10:31:29;;;;;;;7.47;3.30;;;32.40;27.80;;;;;;5028262;28;20052;-71
2023/05/13 10:33:54;;;;;;;6.05;3.53;;;31.40;28.10;;;;;;5031610;28;20509;-71
2023/05/13 10:36:58;;;;;;;4.55;2.97;;;30.90;29.50;;;;;;5028188;28;20038;-73
2023/05/13 10:39:59;;;;;;;4.57;3.20;;;29.80;29.30;;;;;;5028865;28;20450;-72
2023/05/13 10:42:43;;;;;;;5.45;3.67;;;29.10;30.10;;;;;;5022688;28;20405;-70
2023/05/13 10:45:09;;;;;;;6.63;3.45;;;27.80;32.10;;;;;;5027847;28;20398;-72
2023/05/13 10:47:36;;;;;;;4.15;3.47;;;27.30;33.90;;;;;;5021191;28;20041;-72
2023/05/13 10:50:20;;;;;;;7.82;4.05;;;26.90;34.40;;;;;;5017566;28;20038;-72
2023/05/13 10:52:46;;;;;;;5.90;2.85;;;26.70;33.90;;;;;;5030044;28;20029;-70
2023/05/13 10:55:18;;;;;;;4.38;2.92;;;26.40;35.40;;;;;;5019952;28;20091;-71
2023/05/13 10:58:12;;;;;;;6.53;3.78;;;26.10;36.40;;;;;;5019802;28;20034;-70
2023/05/13 11:00:40;;;;;;;5.05;3.88;;;26.00;37.20;;;;;;5019903;28;20045;-71
2023/05/13 11:03:23;;;;;;;6.55;3.40;;;25.60;37.10;;;;;;5021140;28;20065;-70
2023/05/13 11:06:18;;;;;;;4.05;3.30;;;25.50;37.90;;;;;;5008209;28;20589;-70
2023/05/13 11:08:46;;;;;;;4.25;3.20;;;25.30;36.10;;;;;;5011067;28;20046;-71
2023/05/13 11:11:21;;;;;;;7.85;3.85;;;25.20;37.40;;;;;;5011819;28;20037;-72
2023/05/13 11:13:51;;;;;;;5.55;3.50;;;25.20;38.50;;;;;;5013579;28;20068;-71
2023/05/13 11:16:17;;;;;;;7.47;3.22;;;25.00;38.00;;;;;;5023730;28;20452;-71
2023/05/13 11:18:43;;;;;;;5.18;3.22;;;25.00;38.30;;;;;;5024729;28;20041;-71
2023/05/13 11:21:09;;;;;;;5.15;3.72;;;25.10;38.50;;;;;;5021921;28;20068;-71
2023/05/13 11:24:15;;;;;;;5.55;2.85;;;24.80;36.10;;;;;;5031293;28;20049;-71
2023/05/13 11:26:45;;;;;;;5.63;3.10;;;24.80;36.10;;;;;;4989804;28;20104;-70
2023/05/13 11:29:11;;;;;;;4.25;3.05;;;24.80;36.90;;;;;;5019168;28;20099;-70
2023/05/13 11:31:48;;;;;;;5.80;2.95;;;24.90;36.50;;;;;;5026744;28;20066;-71
2023/05/13 11:34:16;;;;;;;7.13;3.33;;;25.00;35.90;;;;;;5019278;28;20382;-70
2023/05/13 11:36:48;;;;;;;4.72;3.60;;;25.00;34.10;;;;;;5019842;28;20033;-71
2023/05/13 11:39:20;;;;;;;5.13;3.40;;;24.80;33.70;;;;;;5010407;28;20065;-69
2023/05/13 11:41:50;;;;;;;6.45;3.28;;;24.40;33.00;;;;;;5004435;28;20049;-71
2023/05/13 11:44:18;;;;;;;4.95;2.80;;;24.00;33.10;;;;;;5028859;28;20058;-70
2023/05/13 11:47:07;;;;;;;6.88;3.20;;;24.10;33.40;;;;;;5029519;28;20038;-71
2023/05/13 11:49:37;;;;;;;3.97;3.20;;;24.40;35.20;;;;;;5027413;28;20361;-70
2023/05/13 11:52:15;;;;;;;6.35;3.13;;;24.40;34.70;;;;;;5027368;28;20490;-71
2023/05/13 11:54:53;;;;;;;4.35;2.90;;;24.50;35.00;;;;;;5008681;28;20045;-70
2023/05/13 11:57:23;;;;;;;6.82;3.20;;;24.90;35.60;;;;;;5025829;28;20033;-70
2023/05/13 11:59:53;;;;;;;6.15;3.33;;;24.80;34.90;;;;;;5022434;28;20052;-71
2023/05/13 12:02:24;;;;;;;4.65;2.78;;;24.50;33.10;;;;;;5012810;28;20123;-71
2023/05/13 12:04:51;;;;;;;5.70;3.00;;;24.80;33.80;;;;;;5027465;28;20112;-71
2023/05/13 12:07:24;;;;;;;3.10;2.75;;;25.00;32.90;;;;;;5012386;28;20049;-71
2023/05/13 12:09:50;;;;;;;6.35;3.13;;;25.10;33.00;;;;;;5022525;28;20417;-71
2023/05/13 12:12:17;;;;;;;5.38;3.08;;;24.90;32.80;;;;;;4997008;28;20538;-72
2023/05/13 12:14:49;;;;;;;3.67;2.60;;;24.80;32.20;;;;;;4997508;28;20120;-71
2023/05/13 12:17:15;;;;;;;3.53;2.55;;;25.00;31.80;;;;;;5000021;28;20049;-72
2023/05/13 12:20:19;;;;;;;5.63;2.80;;;25.40;31.30;;;;;;5022620;28;20041;-71
2023/05/13 12:22:44;;;;;;;6.47;3.13;;;25.60;31.70;;;;;;5026140;28;20037;-70
2023/05/13 12:25:35;;;;;;;4.18;3.00;;;25.40;31.70;;;;;;5019664;28;20103;-71
2023/05/13 12:28:18;;;;;;;5.03;3.00;;;25.30;31.40;;;;;;5010124;28;20379;-72
2023/05/13 12:31:00;;;;;;;4.53;2.47;;;25.70;32.00;;;;;;5013345;28;20029;-70
2023/05/13 12:33:30;;;;;;;3.17;2.72;;;26.60;31.90;;;;;;5005438;28;20090;-70
2023/05/13 12:36:19;;;;;;;4.03;2.60;;;27.30;30.80;;;;;;5013845;28;20041;-70
2023/05/13 12:38:58;;;;;;;4.20;2.47;;;27.70;30.50;;;;;;5007701;28;20489;-71
2023/05/13 12:41:27;;;;;;;3.40;2.92;;;28.30;29.50;;;;;;5017255;28;20058;-70
2023/05/13 12:43:58;;;;;;;3.75;2.85;;;28.90;28.60;;;;;;5015145;28;20042;-71